createdAt,value
2023-03-26T00:00:15.682Z,0.75
2023-03-26T00:02:48.005Z,0.93
2023-03-26T00:05:18.270Z,0.73
2023-03-26T00:07:48.855Z,0.95
2023-03-26T00:10:18.896Z,0.75
2023-03-26T00:12:48.689Z,0.70
2023-03-26T00:15:18.520Z,0.82
2023-03-26T00:17:51.700Z,0.90
2023-03-26T00:20:21.745Z,0.70
2023-03-26T00:22:51.491Z,1.13
2023-03-26T00:25:21.652Z,0.88
2023-03-26T00:27:52.741Z,0.80
2023-03-26T00:30:22.738Z,0.88
2023-03-26T00:32:55.010Z,1.08
2023-03-26T00:35:24.705Z,1.00
2023-03-26T00:37:54.604Z,1.00
2023-03-26T00:40:24.918Z,0.90
2023-03-26T00:42:54.991Z,1.00
2023-03-26T00:45:24.692Z,1.05
2023-03-26T00:47:57.163Z,1.02
2023-03-26T00:50:26.847Z,0.80
2023-03-26T00:52:56.554Z,1.30
2023-03-26T00:55:26.356Z,1.17
2023-03-26T00:57:56.541Z,1.20
2023-03-26T01:00:32.100Z,0.85
2023-03-26T01:03:05.206Z,0.93
2023-03-26T01:05:48.991Z,0.98
2023-03-26T01:08:32.708Z,1.10
2023-03-26T01:11:07.573Z,0.70
2023-03-26T01:13:40.951Z,1.05
2023-03-26T01:16:23.970Z,0.85
2023-03-26T01:18:59.012Z,0.80
2023-03-26T01:21:31.952Z,1.10
2023-03-26T01:24:06.819Z,0.70
2023-03-26T01:26:47.808Z,0.77
2023-03-26T01:29:23.591Z,1.00
2023-03-26T01:32:02.207Z,0.73
2023-03-26T01:34:47.134Z,1.00
2023-03-26T01:37:23.813Z,1.23
2023-03-26T01:40:07.124Z,1.00
2023-03-26T01:42:44.387Z,0.80
2023-03-26T01:45:19.156Z,1.00
2023-03-26T01:47:49.991Z,1.10
2023-03-26T01:50:19.988Z,0.70
2023-03-26T01:52:49.792Z,0.98
2023-03-26T01:55:23.548Z,0.82
2023-03-26T01:58:04.353Z,1.10
2023-03-26T02:00:37.043Z,1.30
2023-03-26T02:03:23.969Z,1.45
2023-03-26T02:06:00.375Z,1.52
2023-03-26T02:08:38.064Z,1.77
2023-03-26T02:11:13.420Z,1.70
2023-03-26T02:13:45.137Z,1.80
2023-03-26T02:16:17.017Z,2.17
2023-03-26T02:18:47.623Z,1.70
2023-03-26T02:21:20.573Z,1.98
2023-03-26T02:23:58.096Z,1.95
2023-03-26T02:26:30.831Z,2.00
2023-03-26T02:29:14.662Z,2.20
2023-03-26T02:31:47.458Z,2.30
2023-03-26T02:34:17.542Z,2.55
2023-03-26T02:36:57.291Z,2.40
2023-03-26T02:39:27.819Z,2.30
2023-03-26T02:42:03.951Z,2.25
2023-03-26T02:44:38.972Z,2.30
2023-03-26T02:47:11.817Z,2.72
2023-03-26T02:49:56.935Z,2.00
2023-03-26T02:52:53.604Z,2.45
2023-03-26T02:55:23.260Z,2.10
2023-03-26T02:57:58.123Z,2.15
2023-03-26T03:00:34.622Z,2.40
2023-03-26T03:03:24.392Z,2.22
2023-03-26T03:06:02.939Z,2.50
2023-03-26T03:08:43.219Z,2.70
2023-03-26T03:11:27.200Z,1.90
2023-03-26T03:14:00.413Z,1.90
2023-03-26T03:16:32.833Z,2.13
2023-03-26T03:19:07.690Z,1.92
2023-03-26T03:21:41.720Z,1.80
2023-03-26T03:24:14.017Z,1.90
2023-03-26T03:26:48.142Z,2.03
2023-03-26T03:29:36.863Z,2.47
2023-03-26T03:32:25.480Z,1.98
2023-03-26T03:34:58.980Z,1.95
2023-03-26T03:37:29.153Z,2.17
2023-03-26T03:40:01.062Z,2.60
2023-03-26T03:42:34.219Z,2.15
2023-03-26T03:45:09.762Z,2.20
2023-03-26T03:47:59.939Z,2.30
2023-03-26T03:50:36.926Z,2.20
2023-03-26T03:53:26.299Z,2.22
2023-03-26T03:55:58.398Z,2.90
2023-03-26T03:58:42.398Z,1.75
2023-03-26T04:01:23.000Z,2.00
2023-03-26T04:04:01.081Z,1.70
2023-03-26T04:06:45.346Z,1.70
2023-03-26T04:09:17.188Z,1.60
2023-03-26T04:11:50.952Z,1.88
2023-03-26T04:14:42.920Z,1.40
2023-03-26T04:17:22.030Z,1.52
2023-03-26T04:19:55.057Z,1.23
2023-03-26T04:22:36.713Z,1.17
2023-03-26T04:25:10.111Z,1.02
2023-03-26T04:28:01.306Z,1.20
2023-03-26T04:30:54.637Z,1.13
2023-03-26T04:33:39.293Z,1.42
2023-03-26T04:36:11.892Z,1.35
2023-03-26T04:38:44.767Z,1.50
2023-03-26T04:41:17.141Z,1.40
2023-03-26T04:44:04.600Z,1.15
2023-03-26T04:49:27.810Z,1.38
2023-03-26T04:51:57.761Z,1.30
2023-03-26T04:54:47.043Z,1.40
2023-03-26T04:57:25.914Z,1.52
2023-03-26T05:00:01.120Z,1.70
2023-03-26T05:02:34.852Z,1.58
2023-03-26T05:05:08.122Z,1.80
2023-03-26T05:07:39.161Z,1.90
2023-03-26T05:10:15.097Z,1.95
2023-03-26T05:12:51.487Z,2.08
2023-03-26T05:15:25.897Z,2.20
2023-03-26T05:18:18.693Z,2.40
2023-03-26T05:20:57.547Z,2.65
2023-03-26T05:23:28.164Z,2.63
2023-03-26T05:26:12.073Z,2.67
2023-03-26T05:28:41.868Z,1.98
2023-03-26T05:31:21.632Z,2.75
2023-03-26T05:33:55.266Z,2.58
2023-03-26T05:36:28.623Z,3.15
2023-03-26T05:39:30.069Z,3.05
2023-03-26T05:41:59.832Z,3.10
2023-03-26T05:44:40.556Z,3.13
2023-03-26T05:47:19.613Z,3.45
2023-03-26T05:49:49.452Z,3.20
2023-03-26T05:52:22.278Z,3.40
2023-03-26T05:55:12.412Z,3.20
2023-03-26T05:58:08.009Z,3.47
2023-03-26T06:01:02.699Z,3.97
2023-03-26T06:03:44.576Z,3.33
2023-03-26T06:06:21.949Z,3.22
2023-03-26T06:09:02.819Z,3.90
2023-03-26T06:11:34.534Z,3.60
2023-03-26T06:14:06.191Z,3.95
2023-03-26T06:16:37.346Z,4.22
2023-03-26T06:19:22.798Z,3.63
2023-03-26T06:22:00.031Z,3.50
2023-03-26T06:24:39.945Z,4.30
2023-03-26T06:27:25.601Z,4.20
2023-03-26T06:30:15.979Z,3.90
2023-03-26T06:33:11.561Z,4.38
2023-03-26T06:35:48.316Z,4.38
2023-03-26T06:38:19.024Z,3.83
2023-03-26T06:40:51.368Z,5.00
2023-03-26T06:43:33.780Z,3.95
2023-03-26T06:46:23.691Z,4.13
2023-03-26T06:49:22.830Z,4.10
2023-03-26T06:52:28.789Z,4.90
2023-03-26T06:55:10.481Z,4.22
2023-03-26T06:57:59.734Z,5.03
2023-03-26T07:01:01.751Z,4.25
2023-03-26T07:03:50.057Z,5.07
2023-03-26T07:06:38.479Z,4.03
2023-03-26T07:09:30.387Z,3.38
2023-03-26T07:12:18.881Z,3.88
2023-03-26T07:14:53.766Z,3.67
2023-03-26T07:17:43.750Z,3.75
2023-03-26T07:20:26.571Z,3.20
2023-03-26T07:22:57.629Z,2.65
2023-03-26T07:29:04.739Z,3.03
2023-03-26T07:32:06.589Z,2.63
2023-03-26T07:34:57.671Z,3.40
2023-03-26T07:37:45.082Z,3.28
2023-03-26T07:40:54.777Z,2.90
2023-03-26T07:43:49.940Z,2.70
2023-03-26T07:46:39.425Z,3.00
2023-03-26T07:49:32.922Z,2.70
2023-03-26T07:52:23.518Z,2.83
2023-03-26T07:55:01.859Z,2.83
2023-03-26T07:58:02.523Z,2.80
2023-03-26T08:00:51.552Z,2.90
2023-03-26T08:03:34.363Z,2.67
2023-03-26T08:06:36.315Z,3.20
2023-03-26T08:09:31.205Z,3.15
2023-03-26T08:12:25.548Z,2.72
2023-03-26T08:15:03.950Z,2.95
2023-03-26T08:17:39.139Z,3.20
2023-03-26T08:20:21.630Z,5.70
2023-03-26T08:23:00.326Z,4.32
2023-03-26T08:25:33.438Z,4.05
2023-03-26T08:28:24.968Z,4.20
2023-03-26T08:30:56.302Z,4.28
2023-03-26T08:33:29.746Z,10.23
2023-03-26T08:35:59.544Z,3.80
2023-03-26T08:38:31.859Z,4.35
2023-03-26T08:41:37.962Z,4.13
2023-03-26T08:44:29.198Z,4.40
2023-03-26T08:47:36.923Z,4.75
2023-03-26T08:50:24.158Z,11.43
2023-03-26T08:53:24.004Z,5.75
2023-03-26T08:56:09.820Z,5.97
2023-03-26T08:59:24.022Z,6.28
2023-03-26T09:02:22.566Z,8.57
2023-03-26T09:05:21.905Z,8.77
2023-03-26T09:08:22.403Z,8.70
2023-03-26T09:11:08.392Z,4.85
2023-03-26T09:14:15.696Z,5.22
2023-03-26T09:17:10.786Z,7.18
2023-03-26T09:20:01.178Z,7.13
2023-03-26T09:22:57.999Z,9.80
2023-03-26T09:28:37.633Z,14.00
2023-03-26T09:31:30.683Z,11.27
2023-03-26T09:34:15.054Z,8.60
2023-03-26T09:36:59.306Z,8.25
2023-03-26T09:39:39.557Z,6.57
2023-03-26T09:42:18.627Z,6.25
2023-03-26T09:45:10.711Z,5.13
2023-03-26T09:47:55.475Z,4.25
2023-03-26T09:50:40.015Z,4.68
2023-03-26T09:53:37.487Z,5.50
2023-03-26T09:56:23.909Z,7.70
2023-03-26T09:59:10.160Z,5.63
2023-03-26T10:01:49.944Z,5.40
2023-03-26T10:04:44.405Z,6.45
2023-03-26T10:07:35.524Z,7.30
2023-03-26T10:10:11.881Z,6.00
2023-03-26T10:12:45.881Z,5.95
2023-03-26T10:15:34.856Z,5.38
2023-03-26T10:18:27.224Z,5.72
2023-03-26T10:21:07.232Z,5.60
2023-03-26T10:23:57.290Z,4.80
2023-03-26T10:26:41.943Z,5.25
2023-03-26T10:29:55.915Z,4.10
2023-03-26T10:32:33.854Z,3.45
2023-03-26T10:35:21.065Z,4.32
2023-03-26T10:38:03.979Z,4.03
2023-03-26T10:40:43.060Z,4.22
2023-03-26T10:43:33.981Z,4.47
2023-03-26T10:46:37.833Z,3.17
2023-03-26T10:49:49.236Z,3.30
2023-03-26T10:52:25.239Z,3.97
2023-03-26T10:54:59.290Z,3.53
2023-03-26T10:57:41.999Z,3.83
2023-03-26T11:00:25.459Z,3.63
2023-03-26T11:03:14.641Z,3.35
2023-03-26T11:05:54.289Z,3.63
2023-03-26T11:08:37.229Z,3.72
2023-03-26T11:11:17.573Z,3.50
2023-03-26T11:13:56.482Z,3.58
2023-03-26T11:16:32.333Z,3.30
2023-03-26T11:19:07.058Z,3.65
2023-03-26T11:21:39.712Z,3.90
2023-03-26T11:24:31.394Z,3.92
2023-03-26T11:27:14.826Z,8.40
2023-03-26T11:29:54.440Z,3.55
2023-03-26T11:32:27.318Z,3.83
2023-03-26T11:35:04.419Z,3.92
2023-03-26T11:37:37.964Z,4.38
2023-03-26T11:40:20.348Z,5.22
2023-03-26T11:42:52.655Z,4.32
2023-03-26T11:45:26.567Z,4.40
2023-03-26T11:48:01.331Z,4.60
2023-03-26T11:50:35.429Z,3.95
2023-03-26T11:53:14.953Z,4.97
2023-03-26T11:55:51.396Z,5.32
2023-03-26T11:58:34.511Z,6.10
2023-03-26T12:01:07.544Z,7.55
2023-03-26T12:03:38.332Z,8.70
2023-03-26T12:06:11.389Z,7.90
2023-03-26T12:08:42.597Z,8.55
2023-03-26T12:11:22.357Z,7.75
2023-03-26T12:13:56.445Z,5.18
2023-03-26T12:16:26.528Z,3.30
2023-03-26T12:19:05.604Z,2.72
2023-03-26T12:21:47.716Z,3.00
2023-03-26T12:24:32.119Z,2.85
2023-03-26T12:27:23.125Z,3.53
2023-03-26T12:30:01.069Z,3.63
2023-03-26T12:32:45.671Z,4.32
2023-03-26T12:35:21.235Z,3.87
2023-03-26T12:37:51.873Z,3.20
2023-03-26T12:40:36.032Z,3.30
2023-03-26T12:44:46.261Z,3.63
2023-03-26T12:49:14.822Z,4.40
2023-03-26T12:51:52.644Z,1.98
2023-03-26T12:54:39.248Z,2.25
2023-03-26T12:57:22.829Z,2.03
2023-03-26T13:00:28.999Z,1.83
2023-03-26T13:03:34.813Z,1.60
2023-03-26T13:06:21.860Z,1.70
2023-03-26T13:09:05.152Z,1.13
2023-03-26T13:11:44.793Z,1.38
2023-03-26T13:14:30.986Z,1.67
2023-03-26T13:17:08.354Z,1.63
2023-03-26T13:19:46.287Z,1.88
2023-03-26T13:22:25.167Z,1.70
2023-03-26T13:25:06.948Z,2.45
2023-03-26T13:27:53.452Z,2.10
2023-03-26T13:30:34.652Z,2.42
2023-03-26T13:33:23.736Z,1.90
2023-03-26T13:36:19.238Z,1.75
2023-03-26T13:39:03.690Z,2.00
2023-03-26T13:41:45.560Z,2.00
2023-03-26T13:44:26.274Z,2.85
2023-03-26T13:47:01.339Z,3.47
2023-03-26T13:49:40.022Z,2.80
2023-03-26T13:52:15.404Z,2.22
2023-03-26T13:54:52.019Z,3.03
2023-03-26T13:57:29.629Z,2.60
2023-03-26T14:00:04.954Z,2.75
2023-03-26T14:02:43.367Z,3.20
2023-03-26T14:05:20.468Z,3.55
2023-03-26T14:07:57.431Z,3.33
2023-03-26T14:10:31.354Z,2.63
2023-03-26T14:13:05.817Z,4.68
2023-03-26T14:15:43.343Z,3.05
2023-03-26T14:18:31.491Z,3.17
2023-03-26T14:21:17.447Z,2.80
2023-03-26T14:24:14.481Z,2.83
2023-03-26T14:27:05.583Z,3.20
2023-03-26T14:29:57.145Z,2.92
2023-03-26T14:32:53.170Z,3.53
2023-03-26T14:35:35.351Z,2.92
2023-03-26T14:38:48.786Z,4.57
2023-03-26T14:41:26.708Z,4.40
2023-03-26T14:44:27.521Z,4.68
2023-03-26T14:47:14.636Z,4.20
2023-03-26T14:50:20.359Z,3.67
2023-03-26T14:52:51.942Z,3.50
2023-03-26T14:55:43.775Z,3.45
2023-03-26T14:58:38.027Z,3.30
2023-03-26T15:01:24.768Z,3.45
2023-03-26T15:04:25.583Z,2.65
2023-03-26T15:07:38.034Z,2.53
2023-03-26T15:10:28.862Z,2.67
2023-03-26T15:13:13.381Z,2.25
2023-03-26T15:16:10.875Z,2.72
2023-03-26T15:19:14.802Z,2.50
2023-03-26T15:22:14.971Z,2.47
2023-03-26T15:25:23.473Z,2.22
2023-03-26T15:28:02.246Z,2.22
2023-03-26T15:31:06.712Z,2.25
2023-03-26T15:34:12.304Z,3.63
2023-03-26T15:37:12.672Z,2.78
2023-03-26T15:40:07.502Z,3.63
2023-03-26T15:42:48.402Z,2.20
2023-03-26T15:45:37.967Z,2.25
2023-03-26T15:48:34.366Z,2.85
2023-03-26T15:51:30.810Z,1.85
2023-03-26T15:54:08.691Z,2.00
2023-03-26T15:57:00.394Z,1.63
2023-03-26T15:59:41.899Z,1.80
2023-03-26T16:02:26.828Z,2.10
2023-03-26T16:04:58.530Z,2.30
2023-03-26T16:07:40.193Z,1.92
2023-03-26T16:10:23.492Z,1.95
2023-03-26T16:13:17.470Z,2.50
2023-03-26T16:15:53.223Z,2.22
2023-03-26T16:18:42.531Z,2.40
2023-03-26T16:21:39.370Z,1.70
2023-03-26T16:24:25.735Z,1.35
2023-03-26T16:27:08.256Z,1.30
2023-03-26T16:30:20.610Z,1.80
2023-03-26T16:32:58.966Z,1.20
2023-03-26T16:35:57.889Z,1.25
2023-03-26T16:38:28.325Z,1.10
2023-03-26T16:41:06.099Z,0.80
2023-03-26T16:43:49.522Z,0.70
2023-03-26T16:46:40.863Z,1.02
2023-03-26T16:49:22.663Z,1.10
2023-03-26T16:52:08.571Z,1.00
2023-03-26T16:54:46.527Z,1.60
2023-03-26T16:57:30.913Z,1.67
2023-03-26T17:00:23.533Z,2.00
2023-03-26T17:03:04.233Z,2.55
2023-03-26T17:05:39.688Z,3.60
2023-03-26T17:08:19.236Z,1.90
2023-03-26T17:11:18.853Z,1.92
2023-03-26T17:14:03.344Z,1.60
2023-03-26T17:16:37.263Z,1.77
2023-03-26T17:19:24.301Z,1.13
2023-03-26T17:22:00.142Z,1.23
2023-03-26T17:24:41.794Z,1.50
2023-03-26T17:27:36.661Z,1.35
2023-03-26T17:30:41.326Z,1.27
2023-03-26T17:33:23.370Z,1.30
2023-03-26T17:36:18.356Z,1.48
2023-03-26T17:39:05.818Z,1.30
2023-03-26T17:42:05.919Z,1.58
2023-03-26T17:44:43.500Z,1.50
2023-03-26T17:47:32.731Z,1.30
2023-03-26T17:50:08.095Z,1.20
2023-03-26T17:52:52.279Z,1.40
2023-03-26T17:55:25.908Z,1.35
2023-03-26T17:58:00.396Z,1.58
2023-03-26T18:00:34.189Z,1.85
2023-03-26T18:03:09.733Z,1.88
2023-03-26T18:05:42.459Z,1.90
2023-03-26T18:08:39.177Z,2.40
2023-03-26T18:11:20.947Z,2.50
2023-03-26T18:14:15.099Z,2.42
2023-03-26T18:16:49.471Z,3.15
2023-03-26T18:19:22.934Z,3.47
2023-03-26T18:21:54.229Z,3.25
2023-03-26T18:24:32.066Z,3.22
2023-03-26T18:27:05.625Z,3.15
2023-03-26T18:29:36.810Z,3.47
2023-03-26T18:32:22.649Z,3.42
2023-03-26T18:34:57.119Z,3.95
2023-03-26T18:37:31.849Z,4.43
2023-03-26T18:40:11.793Z,4.63
2023-03-26T18:42:43.711Z,4.78
2023-03-26T18:45:24.072Z,5.40
2023-03-26T18:47:56.776Z,5.30
2023-03-26T18:50:29.739Z,4.75
2023-03-26T18:53:02.190Z,5.07
2023-03-26T18:55:39.687Z,4.53
2023-03-26T18:58:23.870Z,5.32
2023-03-26T19:00:55.304Z,4.60
2023-03-26T19:03:26.688Z,4.75
2023-03-26T19:05:59.266Z,4.75
2023-03-26T19:08:30.509Z,4.22
2023-03-26T19:11:04.969Z,5.75
2023-03-26T19:13:36.532Z,5.07
2023-03-26T19:16:12.242Z,4.53
2023-03-26T19:18:44.873Z,4.82
2023-03-26T19:21:18.064Z,4.80
2023-03-26T19:23:49.786Z,5.03
2023-03-26T19:26:22.402Z,4.13
2023-03-26T19:28:54.613Z,4.25
2023-03-26T19:31:28.097Z,4.30
2023-03-26T19:34:01.496Z,3.67
2023-03-26T19:36:32.535Z,2.80
2023-03-26T19:39:24.239Z,3.03
2023-03-26T19:42:05.641Z,2.08
2023-03-26T19:44:37.805Z,2.13
2023-03-26T19:47:11.738Z,2.22
2023-03-26T19:49:50.356Z,1.80
2023-03-26T19:52:25.681Z,1.63
2023-03-26T19:54:59.788Z,2.33
2023-03-26T19:57:36.513Z,1.58
2023-03-26T20:00:13.770Z,1.60
2023-03-26T20:02:45.475Z,1.60
2023-03-26T20:05:23.107Z,1.58
2023-03-26T20:07:53.180Z,1.50
2023-03-26T20:10:23.401Z,1.90
2023-03-26T20:12:56.258Z,1.60
2023-03-26T20:15:28.676Z,1.63
2023-03-26T20:17:59.060Z,2.55
2023-03-26T20:20:30.823Z,1.90
2023-03-26T20:23:00.825Z,2.03
2023-03-26T20:25:35.155Z,2.03
2023-03-26T20:28:09.081Z,1.42
2023-03-26T20:30:39.048Z,1.60
2023-03-26T20:33:16.821Z,2.13
2023-03-26T20:35:46.566Z,1.90
2023-03-26T20:38:17.108Z,2.30
2023-03-26T20:40:49.275Z,1.70
2023-03-26T20:43:24.242Z,1.85
2023-03-26T20:45:55.884Z,1.95
2023-03-26T20:48:26.733Z,2.65
2023-03-26T20:50:57.244Z,2.33
2023-03-26T20:53:28.318Z,2.00
2023-03-26T20:55:58.395Z,1.85
2023-03-26T20:58:32.313Z,1.50
2023-03-26T21:01:03.505Z,1.73
2023-03-26T21:03:33.770Z,1.50
2023-03-26T21:06:04.000Z,2.20
2023-03-26T21:08:37.311Z,2.13
2023-03-26T21:11:26.448Z,2.53
2023-03-26T21:14:09.169Z,2.00
2023-03-26T21:16:39.737Z,1.80
2023-03-26T21:19:11.470Z,2.25
2023-03-26T21:21:53.127Z,2.33
2023-03-26T21:24:33.302Z,1.98
2023-03-26T21:27:12.040Z,1.90
2023-03-26T21:29:45.365Z,1.85
2023-03-26T21:32:16.075Z,1.70
2023-03-26T21:34:55.635Z,1.98
2023-03-26T21:37:28.837Z,1.25
2023-03-26T21:39:59.999Z,1.80
2023-03-26T21:42:30.421Z,1.52
2023-03-26T21:45:03.680Z,2.00
2023-03-26T21:47:34.148Z,1.88
2023-03-26T21:50:04.506Z,1.50
2023-03-26T21:52:35.016Z,1.95
2023-03-26T21:55:08.024Z,1.55
2023-03-26T21:57:49.328Z,1.58
2023-03-26T22:00:33.545Z,1.75
2023-03-26T22:03:18.297Z,1.27
2023-03-26T22:05:55.859Z,1.70
2023-03-26T22:08:32.056Z,1.63
2023-03-26T22:11:02.204Z,1.58
2023-03-26T22:13:31.888Z,1.63
2023-03-26T22:16:05.064Z,1.35
2023-03-26T22:18:34.874Z,1.25
2023-03-26T22:21:04.829Z,1.80
2023-03-26T22:23:36.736Z,1.48
2023-03-26T22:26:07.535Z,1.75
2023-03-26T22:28:37.348Z,1.38
2023-03-26T22:31:12.654Z,1.55
2023-03-26T22:33:43.067Z,1.70
2023-03-26T22:36:22.178Z,1.35
2023-03-26T22:38:56.843Z,1.38
2023-03-26T22:41:26.660Z,1.42
2023-03-26T22:44:01.454Z,1.63
2023-03-26T22:46:36.232Z,1.90
2023-03-26T22:49:06.128Z,1.52
2023-03-26T22:51:35.896Z,1.98
2023-03-26T22:54:06.715Z,1.75
2023-03-26T22:56:36.476Z,1.52
2023-03-26T22:59:06.534Z,1.58
2023-03-26T23:01:39.193Z,1.60
2023-03-26T23:04:08.929Z,1.30
2023-03-26T23:06:38.661Z,1.70
2023-03-26T23:09:09.287Z,1.33
2023-03-26T23:11:38.937Z,1.15
2023-03-26T23:14:08.903Z,1.67
2023-03-26T23:16:42.470Z,1.73
2023-03-26T23:19:12.109Z,1.75
2023-03-26T23:21:42.490Z,1.23
2023-03-26T23:24:12.272Z,1.95
2023-03-26T23:26:50.819Z,1.75
2023-03-26T23:29:21.254Z,1.50
2023-03-26T23:31:54.751Z,1.40
2023-03-26T23:34:25.300Z,1.58
2023-03-26T23:36:55.188Z,1.10
2023-03-26T23:39:25.726Z,1.33
2023-03-26T23:41:55.362Z,1.45
2023-03-26T23:44:25.078Z,1.52
2023-03-26T23:46:58.118Z,1.50
2023-03-26T23:49:27.939Z,1.13
2023-03-26T23:51:57.594Z,1.33
2023-03-26T23:54:27.257Z,1.30
2023-03-26T23:56:57.962Z,1.88
2023-03-26T23:59:28.260Z,1.30
